Oak Hill, WV

7:21 AM EDT on September 30, 2016 (GMT -0400)
F.I.T. - Oyler Ave. | | Change Station

Elev 1988 ft 37.99 °N, 81.15 °W | Updated 1 second ago

Overcast
Overcast
56.6 °F
Feels Like 56.6 °F
N
0.0
Wind Variable Wind from West
Gusts 5.0 mph

Today
High -- | Low -- °F
--% Chance of Precip.
Yesterday
High -- | Low -- °F
Precip. -- in
Pressure 30.04 in
Visibility 10.0 miles
Clouds Scattered Clouds 2400 ft
Overcast 10000 ft
Dew Point 56 °F
Humidity 98%
Rainfall 0.00 in
Snow Depth Not available.
7:19 AM 7:08 PM
Waning Crescent, 0% visible
SPECI KBKW 301102Z AUTO 11008KT 10SM SCT024 OVC100 14/14 A3004 RMK AO2 VIS 1 RWY19 LTG DSNT SE RAE1058 TSE1056 CIG 014 RWY19 P0000 T01440139
Pressure 30.04 in
Visibility 10.0 miles
Clouds Scattered Clouds 2400 ft
Overcast 10000 ft
Dew Point 56 °F
Humidity 98%
Rainfall 0.00 in
Snow Depth Not available.
7:19 AM 7:08 PM
Waning Crescent, 0% visible
SPECI KBKW 301102Z AUTO 11008KT 10SM SCT024 OVC100 14/14 A3004 RMK AO2 VIS 1 RWY19 LTG DSNT SE RAE1058 TSE1056 CIG 014 RWY19 P0000 T01440139

10-Day Weather Forecast

Almanac

Astronomy

Sep. 30, 2016 Rise Set
Actual Time
Civil Twilight
Nautical Twilight
Astronomical Twilight
Moon
Length of Visible Light
Length of Day
Tomorrow will be .
, % of the Moon is Illuminated

Today's Extremes

State Highs State Lows

Community

WunderPhotos

Upload Photos

1,942,694 photos uploaded!

WunderBlog® & News

Nearby

Air Quality

  Air Quality AQ Index Pollutant
Not available.

Snow Depth

Station Depth Elevation

Earthquake Activity

City Distance Mag. Time & Date
Minimum magnitude displayed is 2.5.

Coastal Water Temperatures

Place Temperature

Stations

Nearby Weather Stations

Station Location Temp. Windchill Dew Point Humidity Wind Precip. Elev Updated Type
                   

Watches & Warnings

There are currently no watches in effect.